createdAt,value
2018-09-02T00:00:18.437Z,57.25
2018-09-02T00:00:58.979Z,57.25
2018-09-02T00:01:39.491Z,57.54
2018-09-02T00:02:20.009Z,57.73
2018-09-02T00:03:00.521Z,57.83
2018-09-02T00:03:41.041Z,57.64
2018-09-02T00:04:21.557Z,57.54
2018-09-02T00:05:02.069Z,57.45
2018-09-02T00:05:42.588Z,57.83
2018-09-02T00:06:23.104Z,57.45
2018-09-02T00:07:03.620Z,57.64
2018-09-02T00:07:44.138Z,57.83
2018-09-02T00:08:24.649Z,57.73
2018-09-02T00:09:05.161Z,57.83
2018-09-02T00:09:45.677Z,57.83
2018-09-02T00:10:26.188Z,57.83
2018-09-02T00:11:06.709Z,57.92
2018-09-02T00:11:47.239Z,58.02
2018-09-02T00:12:27.753Z,58.09
2018-09-02T00:13:08.280Z,57.8
2018-09-02T00:13:48.797Z,58.09
2018-09-02T00:14:29.312Z,57.9
2018-09-02T00:15:09.829Z,57.99
2018-09-02T00:15:50.348Z,57.83
2018-09-02T00:16:30.869Z,58.12
2018-09-02T00:17:11.371Z,57.73
2018-09-02T00:17:51.889Z,58.02
2018-09-02T00:18:32.414Z,58.02
2018-09-02T00:19:12.991Z,57.92
2018-09-02T00:19:53.465Z,57.7
2018-09-02T00:20:34.102Z,57.9
2018-09-02T00:21:14.514Z,57.22
2018-09-02T00:21:55.036Z,57.6
2018-09-02T00:22:35.558Z,57.42
2018-09-02T00:23:16.083Z,57.8
2018-09-02T00:23:56.599Z,57.42
2018-09-02T00:24:37.127Z,57.8
2018-09-02T00:25:17.663Z,57.8
2018-09-02T00:25:58.187Z,57.51
2018-09-02T00:26:38.704Z,57.6
2018-09-02T00:27:19.221Z,57.7
2018-09-02T00:27:59.756Z,57.99
2018-09-02T00:28:40.264Z,57.99
2018-09-02T00:29:20.972Z,57.8
2018-09-02T00:30:01.487Z,57.8
2018-09-02T00:30:42.001Z,57.42
2018-09-02T00:31:22.522Z,57.6
2018-09-02T00:32:03.037Z,57.99
2018-09-02T00:32:43.548Z,57.9
2018-09-02T00:33:24.104Z,57.8
2018-09-02T00:34:04.665Z,58.09
2018-09-02T00:34:45.105Z,57.51
2018-09-02T00:35:25.621Z,57.51
2018-09-02T00:36:06.190Z,57.99
2018-09-02T00:36:46.709Z,57.97
2018-09-02T00:37:27.233Z,57.87
2018-09-02T00:38:07.767Z,58.06
2018-09-02T00:38:48.282Z,57.99
2018-09-02T00:39:28.808Z,57.8
2018-09-02T00:40:09.332Z,57.97
2018-09-02T00:40:49.855Z,58.15
2018-09-02T00:41:30.389Z,57.97
2018-09-02T00:42:10.919Z,58.15
2018-09-02T00:42:51.437Z,58.92
2018-09-02T00:43:31.964Z,58.92
2018-09-02T00:44:12.492Z,59.41
2018-09-02T00:44:53.005Z,59.38
2018-09-02T00:45:33.524Z,58.99
2018-09-02T00:46:14.046Z,59.38
2018-09-02T00:46:54.574Z,59.5
2018-09-02T00:47:35.090Z,59.38
2018-09-02T00:48:15.610Z,59.12
2018-09-02T00:48:56.146Z,58.92
2018-09-02T00:49:36.667Z,59.12
2018-09-02T00:50:17.196Z,59.31
2018-09-02T00:50:57.717Z,59.22
2018-09-02T00:51:38.222Z,59.41
2018-09-02T00:52:18.744Z,59.02
2018-09-02T00:52:59.274Z,59.12
2018-09-02T00:53:39.795Z,59.41
2018-09-02T00:54:20.316Z,58.92
2018-09-02T00:55:00.833Z,59.22
2018-09-02T00:55:41.631Z,59.31
2018-09-02T00:56:22.143Z,59.5
2018-09-02T00:57:02.665Z,59.41
2018-09-02T00:57:43.174Z,59.12
2018-09-02T00:58:23.701Z,59.02
2018-09-02T00:59:04.213Z,59.5
2018-09-02T00:59:44.733Z,59.6
2018-09-02T01:00:25.249Z,59.41
2018-09-02T01:01:05.766Z,59.31
2018-09-02T01:01:46.279Z,59.31
2018-09-02T01:02:26.798Z,58.92
2018-09-02T01:03:07.319Z,59.02
2018-09-02T01:03:47.847Z,59.5
2018-09-02T01:04:28.375Z,59.41
2018-09-02T01:05:08.938Z,59.5
2018-09-02T01:05:49.455Z,59.31
2018-09-02T01:06:29.996Z,59.02
2018-09-02T01:07:10.514Z,58.73
2018-09-02T01:07:51.030Z,59.02
2018-09-02T01:08:31.549Z,59.12
2018-09-02T01:09:12.074Z,59.12
2018-09-02T01:09:52.593Z,59.02
2018-09-02T01:10:33.111Z,58.83
2018-09-02T01:11:13.636Z,59.12
2018-09-02T01:11:54.167Z,59.12
2018-09-02T01:12:34.740Z,59.12
2018-09-02T01:13:15.273Z,59.22
2018-09-02T01:13:55.800Z,59.31
2018-09-02T01:14:36.365Z,59.31
2018-09-02T01:15:16.833Z,59.41
2018-09-02T01:15:57.373Z,58.92
2018-09-02T01:16:37.880Z,59.12
2018-09-02T01:17:18.401Z,59.22
2018-09-02T01:17:58.935Z,59.22
2018-09-02T01:18:39.474Z,59.12
2018-09-02T01:19:20.006Z,59.02
2018-09-02T01:20:00.530Z,59.41
2018-09-02T01:20:41.087Z,59.31
2018-09-02T01:21:21.697Z,59.22
2018-09-02T01:22:02.230Z,59.6
2018-09-02T01:22:42.763Z,59.31
2018-09-02T01:23:23.285Z,59.22
2018-09-02T01:24:03.799Z,59.31
2018-09-02T01:24:44.324Z,59.31
2018-09-02T01:25:24.833Z,59.6
2018-09-02T01:26:06.136Z,59.22
2018-09-02T01:26:45.967Z,59.69
2018-09-02T01:27:26.488Z,59.5
2018-09-02T01:28:07.005Z,59.12
2018-09-02T01:28:47.530Z,59.31
2018-09-02T01:29:28.054Z,59.6
2018-09-02T01:30:08.568Z,59.69
2018-09-02T01:30:49.084Z,60.08
2018-09-02T01:31:29.606Z,59.89
2018-09-02T01:32:10.113Z,59.99
2018-09-02T01:32:50.640Z,60.08
2018-09-02T01:33:31.355Z,60.27
2018-09-02T01:34:11.881Z,60.08
2018-09-02T01:34:52.402Z,60.17
2018-09-02T01:35:32.930Z,60.08
2018-09-02T01:36:13.434Z,59.89
2018-09-02T01:36:53.961Z,60.08
2018-09-02T01:37:34.485Z,60.08
2018-09-02T01:38:15.000Z,59.69
2018-09-02T01:38:55.523Z,59.79
2018-09-02T01:39:36.038Z,59.79
2018-09-02T01:40:16.545Z,60.27
2018-09-02T01:40:57.060Z,60.27
2018-09-02T01:41:37.580Z,60.27
2018-09-02T01:42:18.103Z,60.08
2018-09-02T01:42:58.607Z,60.46
2018-09-02T01:43:39.130Z,60.37
2018-09-02T01:44:19.654Z,60.37
2018-09-02T01:45:00.172Z,59.99
2018-09-02T01:45:40.694Z,59.89
2018-09-02T01:46:21.212Z,59.6
2018-09-02T01:47:01.724Z,59.69
2018-09-02T01:47:42.234Z,60.37
2018-09-02T01:48:22.790Z,60.27
2018-09-02T01:49:03.305Z,60.46
2018-09-02T01:49:43.828Z,60.27
2018-09-02T01:50:24.345Z,60.17
2018-09-02T01:51:04.851Z,60.46
2018-09-02T01:51:45.367Z,60.27
2018-09-02T01:52:25.888Z,60.27
2018-09-02T01:53:06.418Z,60.46
2018-09-02T01:53:46.940Z,60.75
2018-09-02T01:54:27.579Z,60.66
2018-09-02T01:55:08.102Z,60.46
2018-09-02T01:55:48.618Z,60.66
2018-09-02T01:56:29.137Z,61.04
2018-09-02T01:57:09.658Z,60.66
2018-09-02T01:57:50.181Z,61.04
2018-09-02T01:58:30.690Z,60.85
2018-09-02T01:59:11.209Z,60.75
2018-09-02T01:59:51.749Z,60.75
2018-09-02T02:00:32.654Z,61.04
2018-09-02T02:01:13.171Z,61.04
2018-09-02T02:01:53.698Z,60.75
2018-09-02T02:02:34.220Z,61.14
2018-09-02T02:03:14.736Z,61.33
2018-09-02T02:03:55.258Z,61.14
2018-09-02T02:04:35.781Z,60.94
2018-09-02T02:05:16.304Z,60.75
2018-09-02T02:05:56.819Z,61.14
2018-09-02T02:06:37.335Z,61.33
2018-09-02T02:07:17.849Z,61.14
2018-09-02T02:07:58.368Z,61.33
2018-09-02T02:08:38.991Z,60.85
2018-09-02T02:09:19.525Z,61.91
2018-09-02T02:10:00.041Z,61.61
2018-09-02T02:10:40.580Z,61.71
2018-09-02T02:11:21.089Z,61.33
2018-09-02T02:12:01.595Z,61.61
2018-09-02T02:12:42.107Z,61.61
2018-09-02T02:13:22.613Z,61.71
2018-09-02T02:14:03.196Z,61.61
2018-09-02T02:14:43.707Z,61.52
2018-09-02T02:15:24.226Z,61.52
2018-09-02T02:16:04.742Z,61.81
2018-09-02T02:16:45.275Z,61.52
2018-09-02T02:17:25.793Z,61.61
2018-09-02T02:18:06.313Z,61.91
2018-09-02T02:18:46.832Z,61.52
2018-09-02T02:19:27.353Z,62
2018-09-02T02:20:07.881Z,61.52
2018-09-02T02:20:48.449Z,62.1
2018-09-02T02:21:29.189Z,61.91
2018-09-02T02:22:09.879Z,61.71
2018-09-02T02:22:50.419Z,62
2018-09-02T02:23:30.955Z,62.58
2018-09-02T02:24:11.465Z,62.68
2018-09-02T02:24:51.984Z,62.77
2018-09-02T02:25:32.505Z,62.58
2018-09-02T02:26:13.027Z,63.15
2018-09-02T02:26:53.550Z,63.06
2018-09-02T02:27:34.088Z,62.74
2018-09-02T02:28:14.604Z,62.93
2018-09-02T02:28:55.124Z,63.02
2018-09-02T02:30:53.637Z,62.77
2018-09-02T02:31:34.154Z,62.87
2018-09-02T02:32:14.667Z,62.77
2018-09-02T02:32:55.190Z,63.06
2018-09-02T02:33:35.745Z,62.58
2018-09-02T02:35:53.661Z,62.68
2018-09-02T02:36:34.180Z,62.77
2018-09-02T02:37:14.703Z,62.58
2018-09-02T02:37:55.223Z,62.68
2018-09-02T02:38:35.720Z,62.68
2018-09-02T02:39:16.336Z,63.15
2018-09-02T02:39:56.853Z,63.15
2018-09-02T02:40:37.396Z,63.35
2018-09-02T02:41:17.923Z,63.15
2018-09-02T02:41:58.441Z,62.96
2018-09-02T02:42:38.957Z,62.96
2018-09-02T02:43:19.464Z,63.06
2018-09-02T02:43:59.981Z,63.06
2018-09-02T02:44:40.507Z,63.35
2018-09-02T02:45:21.033Z,63.22
2018-09-02T02:46:01.548Z,63.32
2018-09-02T02:46:42.104Z,63.45
2018-09-02T02:47:22.618Z,63.54
2018-09-02T02:48:03.134Z,63.06
2018-09-02T02:48:43.648Z,63.06
2018-09-02T02:49:24.165Z,63.54
2018-09-02T02:50:04.692Z,62.96
2018-09-02T02:50:45.208Z,63.06
2018-09-02T02:51:25.721Z,63.54
2018-09-02T02:52:06.242Z,62.87
2018-09-02T02:52:46.752Z,63.15
2018-09-02T02:53:27.256Z,63.45
2018-09-02T02:54:07.915Z,63.35
2018-09-02T02:55:55.906Z,63.89
2018-09-02T02:56:36.444Z,63.64
2018-09-02T02:57:16.980Z,63.51
2018-09-02T02:57:57.508Z,63.35
2018-09-02T02:58:38.095Z,63.15
2018-09-02T02:59:18.625Z,63.25
2018-09-02T02:59:59.157Z,63.15
2018-09-02T03:00:39.678Z,63.45
2018-09-02T03:01:20.202Z,63.25
2018-09-02T03:02:00.720Z,63.73
2018-09-02T03:02:41.231Z,63.15
2018-09-02T03:03:21.735Z,63.54
2018-09-02T03:04:02.265Z,63.64
2018-09-02T03:04:42.776Z,63.06
2018-09-02T03:05:23.295Z,63.54
2018-09-02T03:06:03.810Z,63.15
2018-09-02T03:06:44.320Z,63.06
2018-09-02T03:07:24.831Z,62.87
2018-09-02T03:08:05.350Z,62.87
2018-09-02T03:08:45.867Z,62.96
2018-09-02T03:09:26.387Z,62.96
2018-09-02T03:10:06.900Z,62.77
2018-09-02T03:10:47.448Z,62.68
2018-09-02T03:11:27.954Z,62.96
2018-09-02T03:12:08.467Z,62.77
2018-09-02T03:12:48.999Z,62.77
2018-09-02T03:13:29.523Z,62.77
2018-09-02T03:14:10.044Z,63.15
2018-09-02T03:14:50.567Z,62.77
2018-09-02T03:15:31.100Z,63.15
2018-09-02T03:16:11.632Z,62.87
2018-09-02T03:16:52.151Z,63.06
2018-09-02T03:17:32.667Z,63.06
2018-09-02T03:18:13.187Z,63.35
2018-09-02T03:20:31.103Z,63.06
2018-09-02T03:21:11.624Z,62.96
2018-09-02T03:21:52.139Z,63.15
2018-09-02T03:22:32.656Z,62.96
2018-09-02T03:23:13.183Z,63.15
2018-09-02T03:23:53.722Z,63.15
2018-09-02T03:24:34.232Z,63.25
2018-09-02T03:25:14.755Z,63.06
2018-09-02T03:25:55.246Z,62.77
2018-09-02T03:26:35.747Z,62.77
2018-09-02T03:27:16.253Z,62.68
2018-09-02T03:27:56.760Z,62.58
2018-09-02T03:28:37.274Z,62.77
2018-09-02T03:29:17.800Z,63.06
2018-09-02T03:29:58.313Z,62.93
2018-09-02T03:30:38.845Z,63.35
2018-09-02T03:31:19.378Z,63.35
2018-09-02T03:31:59.918Z,62.77
2018-09-02T03:32:40.419Z,63.25
2018-09-02T03:33:20.965Z,63.25
2018-09-02T03:34:01.525Z,63.25
2018-09-02T03:34:42.098Z,63.25
2018-09-02T03:35:22.614Z,63.06
2018-09-02T03:36:03.166Z,62.77
2018-09-02T03:36:43.693Z,63.06
2018-09-02T03:37:24.189Z,62.96
2018-09-02T03:38:04.709Z,63.06
2018-09-02T03:38:45.235Z,62.87
2018-09-02T03:39:25.739Z,62.96
2018-09-02T03:40:06.256Z,63.06
2018-09-02T03:40:47.256Z,63.06
2018-09-02T03:41:27.533Z,63.12
2018-09-02T03:42:08.047Z,63.02
2018-09-02T03:42:48.563Z,62.96
2018-09-02T03:43:29.092Z,63.15
2018-09-02T03:44:09.599Z,62.93
2018-09-02T03:44:50.122Z,63.12
2018-09-02T03:45:30.631Z,63.12
2018-09-02T03:46:11.160Z,63.41
2018-09-02T03:46:51.676Z,63.12
2018-09-02T03:47:32.195Z,63.99
2018-09-02T03:48:12.719Z,63.79
2018-09-02T03:48:53.251Z,63.41
2018-09-02T03:49:33.759Z,63.7
2018-09-02T03:50:14.401Z,63.7
2018-09-02T03:50:54.931Z,64.28
2018-09-02T03:51:35.448Z,63.41
2018-09-02T03:52:15.959Z,63.79
2018-09-02T03:52:56.478Z,63.22
2018-09-02T03:53:37.007Z,62.93
2018-09-02T03:54:17.751Z,63.32
2018-09-02T03:54:58.286Z,63.41
2018-09-02T03:55:38.812Z,63.12
2018-09-02T03:57:31.757Z,63.41
2018-09-02T03:58:12.266Z,63.32
2018-09-02T03:58:52.789Z,63.12
2018-09-02T03:59:33.305Z,63.6
2018-09-02T04:00:13.830Z,63.12
2018-09-02T04:00:54.355Z,63.22
2018-09-02T04:01:34.870Z,63.02
2018-09-02T04:02:15.394Z,63.22
2018-09-02T04:02:55.921Z,63.22
2018-09-02T04:03:36.433Z,63.22
2018-09-02T04:04:16.949Z,63.12
2018-09-02T04:04:57.466Z,63.51
2018-09-02T04:05:37.989Z,63.41
2018-09-02T04:06:18.515Z,62.77
2018-09-02T04:06:59.032Z,63.32
2018-09-02T04:07:39.557Z,62.74
2018-09-02T04:08:20.076Z,63.22
2018-09-02T04:09:00.609Z,63.41
2018-09-02T04:09:41.127Z,63.02
2018-09-02T04:10:21.657Z,62.93
2018-09-02T04:11:02.176Z,62.55
2018-09-02T04:11:42.694Z,63.02
2018-09-02T04:12:23.243Z,63.06
2018-09-02T04:13:03.723Z,62.74
2018-09-02T04:13:44.317Z,62.93
2018-09-02T04:14:24.837Z,63.06
2018-09-02T04:15:05.349Z,62.96
2018-09-02T04:15:45.865Z,63.06
2018-09-02T04:16:26.388Z,63.15
2018-09-02T04:17:06.896Z,62.77
2018-09-02T04:17:47.421Z,62.93
2018-09-02T04:18:27.957Z,63.15
2018-09-02T04:19:08.465Z,63.15
2018-09-02T04:19:49.242Z,63.22
2018-09-02T04:21:37.235Z,62.77
2018-09-02T04:22:17.756Z,63.15
2018-09-02T04:22:58.279Z,62.64
2018-09-02T04:23:38.794Z,62.74
2018-09-02T04:24:19.326Z,62.74
2018-09-02T04:24:59.844Z,62.74
2018-09-02T04:25:40.471Z,62.84
2018-09-02T04:26:20.988Z,63.32
2018-09-02T04:27:01.575Z,62.84
2018-09-02T04:27:42.074Z,62.84
2018-09-02T04:28:22.587Z,62.84
2018-09-02T04:29:03.107Z,62.74
2018-09-02T04:29:43.617Z,62.64
2018-09-02T04:30:24.134Z,62.74
2018-09-02T04:31:04.662Z,62.96
2018-09-02T04:31:45.166Z,62.64
2018-09-02T04:32:25.686Z,62.16
2018-09-02T04:33:06.215Z,63.32
2018-09-02T04:33:47.630Z,63.12
2018-09-02T04:34:28.042Z,62.84
2018-09-02T04:35:08.545Z,62.93
2018-09-02T04:35:49.302Z,63.02
2018-09-02T04:36:29.600Z,63.6
2018-09-02T04:37:10.101Z,63.22
2018-09-02T04:37:50.623Z,63.51
2018-09-02T04:38:31.143Z,62.93
2018-09-02T04:39:11.668Z,63.7
2018-09-02T04:39:52.187Z,63.02
2018-09-02T04:40:32.702Z,63.12
2018-09-02T04:41:13.227Z,63.41
2018-09-02T04:41:53.756Z,63.22
2018-09-02T04:42:34.282Z,63.22
2018-09-02T04:43:14.802Z,63.12
2018-09-02T04:43:55.320Z,63.41
2018-09-02T04:44:35.852Z,63.12
2018-09-02T04:45:16.378Z,63.32
2018-09-02T04:45:56.886Z,63.51
2018-09-02T04:46:37.401Z,63.32
2018-09-02T04:47:17.971Z,63.79
2018-09-02T04:47:58.493Z,63.32
2018-09-02T04:48:39.030Z,63.6
2018-09-02T04:49:19.553Z,63.6
2018-09-02T04:50:00.064Z,63.12
2018-09-02T04:50:40.590Z,63.51
2018-09-02T04:51:21.106Z,63.02
2018-09-02T04:52:01.650Z,62.93
2018-09-02T04:52:42.132Z,62.74
2018-09-02T04:53:22.657Z,63.32
2018-09-02T04:54:03.187Z,63.41
2018-09-02T04:54:43.743Z,63.6
2018-09-02T04:55:24.207Z,63.12
2018-09-02T04:56:04.731Z,63.51
2018-09-02T04:56:45.255Z,63.22
2018-09-02T04:57:25.777Z,63.32
2018-09-02T04:58:06.312Z,63.99
2018-09-02T04:58:46.823Z,63.89
2018-09-02T04:59:27.340Z,63.79
2018-09-02T05:00:07.891Z,63.89
2018-09-02T05:00:48.387Z,63.7
2018-09-02T05:01:28.904Z,63.6
2018-09-02T05:02:09.416Z,63.32
2018-09-02T05:02:49.938Z,63.79
2018-09-02T05:03:30.458Z,63.99
2018-09-02T05:04:10.984Z,63.99
2018-09-02T05:04:51.489Z,64.28
2018-09-02T05:05:32.004Z,64.28
2018-09-02T05:06:12.519Z,64.09
2018-09-02T05:06:53.034Z,64.66
2018-09-02T05:07:33.551Z,64.37
2018-09-02T05:08:14.076Z,64.18
2018-09-02T05:08:54.588Z,64.28
2018-09-02T05:09:35.099Z,64.28
2018-09-02T05:10:15.606Z,64.28
2018-09-02T05:10:56.124Z,64.18
2018-09-02T05:11:36.650Z,64.28
2018-09-02T05:12:17.178Z,64.18
2018-09-02T05:12:57.700Z,63.99
2018-09-02T05:13:38.216Z,64.37
2018-09-02T05:14:18.805Z,64.37
2018-09-02T05:14:59.261Z,64.09
2018-09-02T05:15:39.772Z,64.95
2018-09-02T05:16:20.282Z,64.66
2018-09-02T05:17:00.815Z,64.56
2018-09-02T05:17:41.322Z,64.56
2018-09-02T05:18:21.845Z,64.95
2018-09-02T05:19:02.379Z,64.56
2018-09-02T05:19:42.896Z,64.28
2018-09-02T05:20:23.411Z,64.09
2018-09-02T05:21:03.932Z,64.28
2018-09-02T05:21:44.437Z,64.47
2018-09-02T05:22:25.113Z,64.18
2018-09-02T05:23:05.654Z,64.47
2018-09-02T05:23:46.179Z,64.47
2018-09-02T05:24:26.695Z,64.37
2018-09-02T05:25:07.212Z,64.18
2018-09-02T05:25:47.731Z,64.18
2018-09-02T05:26:28.236Z,64.47
2018-09-02T05:27:08.751Z,64.28
2018-09-02T05:27:49.274Z,64.28
2018-09-02T05:28:29.793Z,64.09
2018-09-02T05:29:10.313Z,64.09
2018-09-02T05:29:50.890Z,64.18
2018-09-02T05:30:31.404Z,64.18
2018-09-02T05:31:11.919Z,64.47
2018-09-02T05:31:52.464Z,64.56
2018-09-02T05:32:32.967Z,64.47
2018-09-02T05:33:13.480Z,64.37
2018-09-02T05:33:54.007Z,64.47
2018-09-02T05:34:34.529Z,64.37
2018-09-02T05:35:15.042Z,64.28
2018-09-02T05:35:55.553Z,64.47
2018-09-02T05:36:36.061Z,64.47
2018-09-02T05:37:16.590Z,64.47
2018-09-02T05:37:57.098Z,64.85
2018-09-02T05:38:37.617Z,64.76
2018-09-02T05:39:18.144Z,64.56
2018-09-02T05:39:58.670Z,64.47
2018-09-02T05:40:39.187Z,64.56
2018-09-02T05:41:19.710Z,64.28
2018-09-02T05:42:00.242Z,64.56
2018-09-02T05:42:40.739Z,64.56
2018-09-02T05:43:21.254Z,64.56
2018-09-02T05:44:01.801Z,64.28
2018-09-02T05:44:42.279Z,64.12
2018-09-02T05:45:22.806Z,63.92
2018-09-02T05:46:03.320Z,64.31
2018-09-02T05:46:43.839Z,63.54
2018-09-02T05:47:24.356Z,63.73
2018-09-02T05:48:04.890Z,63.92
2018-09-02T05:48:45.390Z,64.37
2018-09-02T05:49:25.916Z,63.99
2018-09-02T05:50:06.431Z,63.92
2018-09-02T05:50:46.954Z,63.73
2018-09-02T05:51:27.473Z,63.45
2018-09-02T05:52:07.996Z,63.73
2018-09-02T05:52:48.534Z,64.28
2018-09-02T05:53:29.055Z,64.22
2018-09-02T05:54:09.568Z,64.4
2018-09-02T05:54:50.094Z,64.31
2018-09-02T05:55:30.608Z,64.4
2018-09-02T05:56:11.128Z,64.31
2018-09-02T05:56:51.649Z,64.31
2018-09-02T05:57:32.196Z,64.4
2018-09-02T05:58:12.681Z,64.31
2018-09-02T05:58:53.209Z,64.31
2018-09-02T05:59:33.711Z,63.92
2018-09-02T06:00:14.229Z,64.02
2018-09-02T06:00:54.790Z,64.31
2018-09-02T06:01:35.258Z,64.56
2018-09-02T06:02:15.796Z,64.09
2018-09-02T06:02:56.394Z,64.98
2018-09-02T06:03:36.847Z,63.99
2018-09-02T06:04:17.366Z,64.47
2018-09-02T06:04:57.897Z,64.28
2018-09-02T06:05:38.465Z,64.6
2018-09-02T06:06:18.954Z,64.6
2018-09-02T06:06:59.485Z,64.98
2018-09-02T06:07:40.013Z,65.08
2018-09-02T06:08:20.529Z,64.4
2018-09-02T06:09:01.042Z,65.08
2018-09-02T06:09:41.557Z,64.5
2018-09-02T06:10:22.065Z,64.31
2018-09-02T06:11:02.583Z,64.5
2018-09-02T06:11:43.102Z,64.4
2018-09-02T06:12:23.632Z,64.31
2018-09-02T06:13:04.141Z,64.22
2018-09-02T06:13:44.655Z,64.22
2018-09-02T06:14:25.170Z,64.31
2018-09-02T06:15:05.704Z,64.12
2018-09-02T06:15:46.233Z,64.12
2018-09-02T06:16:26.748Z,63.92
2018-09-02T06:17:07.289Z,63.92
2018-09-02T06:17:47.775Z,63.83
2018-09-02T06:18:28.292Z,64.02
2018-09-02T06:19:08.826Z,63.92
2018-09-02T06:19:49.344Z,64.12
2018-09-02T06:20:29.900Z,63.18
2018-09-02T06:21:10.420Z,63.92
2018-09-02T06:21:50.955Z,63.86
2018-09-02T06:22:31.460Z,63.64
2018-09-02T06:23:11.975Z,63.45
2018-09-02T06:23:52.491Z,63.73
2018-09-02T06:24:33.070Z,63.64
2018-09-02T06:25:13.589Z,63.54
2018-09-02T06:25:54.125Z,64.02
2018-09-02T06:26:34.637Z,64.02
2018-09-02T06:27:15.182Z,64.22
2018-09-02T06:27:55.829Z,64.12
2018-09-02T06:28:36.361Z,64.22
2018-09-02T06:29:16.869Z,64.12
2018-09-02T06:29:57.463Z,64.12
2018-09-02T06:30:37.927Z,64.22
2018-09-02T06:31:18.455Z,64.31
2018-09-02T06:31:58.956Z,64.31
2018-09-02T06:32:39.531Z,64.12
2018-09-02T06:33:19.989Z,64.4
2018-09-02T06:34:00.507Z,64.12
2018-09-02T06:34:41.027Z,64.69
2018-09-02T06:35:21.602Z,65.37
2018-09-02T06:36:02.072Z,64.95
2018-09-02T06:36:42.588Z,65.43
2018-09-02T06:37:23.111Z,65.37
2018-09-02T06:38:03.624Z,65.62
2018-09-02T06:38:44.136Z,64.98
2018-09-02T06:39:24.659Z,64.79
2018-09-02T06:40:05.170Z,65.08
2018-09-02T06:40:45.682Z,65.08
2018-09-02T06:41:26.206Z,64.89
2018-09-02T06:42:06.720Z,64.79
2018-09-02T06:42:47.239Z,64.6
2018-09-02T06:43:27.753Z,64.4
2018-09-02T06:44:08.292Z,64.6
2018-09-02T06:44:48.814Z,64.89
2018-09-02T06:45:29.326Z,64.89
2018-09-02T06:46:09.853Z,64.4
2018-09-02T06:46:50.368Z,64.6
2018-09-02T06:47:30.869Z,64.4
2018-09-02T06:48:11.394Z,64.5
2018-09-02T06:48:52.678Z,64.98
2018-09-02T06:49:33.205Z,64.6
2018-09-02T06:50:13.761Z,64.89
2018-09-02T06:50:54.278Z,65.08
2018-09-02T06:51:34.794Z,65.37
2018-09-02T06:52:15.309Z,64.89
2018-09-02T06:52:55.829Z,64.89
2018-09-02T06:53:36.363Z,64.89
2018-09-02T06:54:16.883Z,64.4
2018-09-02T06:54:57.413Z,64.05
2018-09-02T06:55:37.929Z,64.6
2018-09-02T06:56:18.435Z,64.92
2018-09-02T06:56:58.965Z,64.69
2018-09-02T06:57:39.474Z,65.08
2018-09-02T06:58:19.996Z,64.89
2018-09-02T06:59:00.504Z,64.98
2018-09-02T06:59:41.024Z,64.89
2018-09-02T07:00:21.552Z,64.98
2018-09-02T07:01:02.076Z,64.89
2018-09-02T07:01:42.589Z,65.08
2018-09-02T07:02:23.126Z,65.17
2018-09-02T07:03:03.795Z,65.75
2018-09-02T07:03:44.314Z,65.37
2018-09-02T07:04:24.828Z,64.98
2018-09-02T07:05:05.351Z,64.98
2018-09-02T07:05:45.867Z,64.98
2018-09-02T07:06:26.375Z,65.27
2018-09-02T07:07:06.888Z,65.2
2018-09-02T07:07:47.409Z,64.92
2018-09-02T07:08:27.935Z,65.4
2018-09-02T07:09:08.461Z,65.11
2018-09-02T07:09:48.976Z,65.4
2018-09-02T07:10:29.491Z,65.2
2018-09-02T07:11:10.017Z,64.82
2018-09-02T07:11:50.536Z,64.92
2018-09-02T07:12:31.069Z,64.43
2018-09-02T07:13:11.590Z,64.25
2018-09-02T07:13:52.120Z,64.43
2018-09-02T07:14:32.639Z,64.34
2018-09-02T07:15:13.152Z,64.34
2018-09-02T07:15:53.683Z,64.63
2018-09-02T07:16:34.247Z,64.28
2018-09-02T07:17:14.756Z,64.18
2018-09-02T07:17:55.276Z,64.63
2018-09-02T07:18:35.795Z,64.47
2018-09-02T07:19:16.327Z,64.25
2018-09-02T07:19:56.940Z,64.28
2018-09-02T07:20:37.430Z,64.63
2018-09-02T07:21:17.964Z,64.73
2018-09-02T07:21:58.489Z,65.11
2018-09-02T07:22:39.018Z,65.01
2018-09-02T07:23:19.537Z,65.4
2018-09-02T07:24:00.157Z,65.4
2018-09-02T07:24:40.676Z,65.3
2018-09-02T07:25:21.200Z,64.43
2018-09-02T07:26:01.722Z,64.66
2018-09-02T07:26:42.240Z,64.47
2018-09-02T07:27:22.777Z,64.37
2018-09-02T07:28:03.283Z,64.28
2018-09-02T07:28:43.799Z,64.56
2018-09-02T07:29:24.335Z,64.47
2018-09-02T07:30:04.853Z,64.08
2018-09-02T07:30:45.397Z,64.47
2018-09-02T07:31:25.940Z,64.37
2018-09-02T07:32:06.436Z,64.37
2018-09-02T07:32:46.982Z,64.66
2018-09-02T07:33:27.512Z,64.08
2018-09-02T07:34:08.030Z,64.28
2018-09-02T07:34:48.552Z,64.08
2018-09-02T07:35:29.061Z,64.5
2018-09-02T07:36:09.649Z,64.31
2018-09-02T07:36:50.101Z,63.82
2018-09-02T07:37:30.629Z,64.02
2018-09-02T07:38:11.225Z,63.73
2018-09-02T07:38:51.746Z,63.82
2018-09-02T07:39:32.271Z,64.02
2018-09-02T07:40:12.797Z,63.64
2018-09-02T07:40:53.315Z,64.02
2018-09-02T07:41:33.851Z,63.92
2018-09-02T07:42:14.358Z,64.02
2018-09-02T07:42:54.881Z,63.92
2018-09-02T07:43:35.455Z,63.34
2018-09-02T07:44:16.573Z,63.15
2018-09-02T07:44:56.848Z,63.25
2018-09-02T07:45:37.368Z,63.25
2018-09-02T07:46:17.881Z,63.34
2018-09-02T07:48:36.258Z,63.73
2018-09-02T07:49:16.774Z,63.28
2018-09-02T07:49:57.307Z,63.64
2018-09-02T07:50:37.827Z,63.73
2018-09-02T07:51:18.348Z,63.18
2018-09-02T07:51:58.870Z,63.38
2018-09-02T07:52:39.385Z,63.28
2018-09-02T07:53:19.899Z,63.82
2018-09-02T07:54:00.437Z,63.64
2018-09-02T07:54:40.979Z,63.28
2018-09-02T07:55:21.492Z,63.18
2018-09-02T07:56:02.034Z,63.18
2018-09-02T07:56:42.581Z,62.99
2018-09-02T07:57:23.108Z,63.18
2018-09-02T07:58:03.632Z,62.9
2018-09-02T07:58:44.161Z,62.99
2018-09-02T07:59:24.679Z,62.99
2018-09-02T08:00:05.208Z,62.99
2018-09-02T08:00:45.720Z,62.9
2018-09-02T08:01:26.226Z,63.34
2018-09-02T08:02:06.755Z,63.06
2018-09-02T08:02:47.344Z,63.34
2018-09-02T08:03:27.810Z,63.15
2018-09-02T08:04:08.465Z,63.34
2018-09-02T08:04:48.992Z,63.34
2018-09-02T08:05:29.515Z,63.06
2018-09-02T08:06:10.038Z,63.54
2018-09-02T08:06:50.566Z,63.06
2018-09-02T08:07:31.083Z,63.34
2018-09-02T08:08:11.602Z,62.96
2018-09-02T08:08:52.140Z,63.44
2018-09-02T08:09:32.667Z,63.25
2018-09-02T08:10:13.211Z,63.38
2018-09-02T08:10:53.726Z,63.47
2018-09-02T08:11:34.259Z,63.28
2018-09-02T08:12:14.789Z,63.15
2018-09-02T08:12:55.605Z,63.54
2018-09-02T08:13:35.823Z,63.25
2018-09-02T08:14:16.361Z,63.25
2018-09-02T08:14:56.871Z,63.34
2018-09-02T08:15:37.383Z,63.15
2018-09-02T08:16:17.937Z,63.44
2018-09-02T08:16:58.469Z,63.64
2018-09-02T08:17:38.985Z,63.25
2018-09-02T08:18:19.516Z,63.73
2018-09-02T08:19:00.050Z,63.73
2018-09-02T08:19:40.585Z,63.34
2018-09-02T08:20:21.092Z,63.25
2018-09-02T08:21:01.603Z,63.73
2018-09-02T08:21:42.165Z,63.92
2018-09-02T08:22:22.709Z,63.73
2018-09-02T08:23:03.233Z,63.92
2018-09-02T08:23:43.751Z,64.02
2018-09-02T08:24:24.317Z,64.02
2018-09-02T08:25:04.790Z,63.82
2018-09-02T08:25:45.316Z,63.73
2018-09-02T08:26:25.856Z,64.21
2018-09-02T08:27:06.382Z,63.25
2018-09-02T08:27:46.940Z,63.34
2018-09-02T08:28:27.529Z,63.54
2018-09-02T08:29:08.045Z,63.47
2018-09-02T08:29:48.568Z,63.57
2018-09-02T08:30:29.080Z,63.47
2018-09-02T08:31:09.589Z,63.47
2018-09-02T08:31:50.105Z,63.09
2018-09-02T08:32:30.625Z,63.28
2018-09-02T08:33:11.319Z,62.99
2018-09-02T08:33:51.857Z,63.57
2018-09-02T08:34:32.394Z,63.18
2018-09-02T08:35:12.929Z,62.93
2018-09-02T08:35:53.455Z,63.09
2018-09-02T08:36:33.971Z,63.28
2018-09-02T08:37:14.479Z,62.99
2018-09-02T08:37:55.003Z,62.83
2018-09-02T08:38:35.524Z,63.02
2018-09-02T08:39:16.118Z,62.93
2018-09-02T08:39:56.576Z,62.93
2018-09-02T08:40:37.089Z,62.73
2018-09-02T08:41:17.617Z,62.63
2018-09-02T08:41:58.130Z,62.93
2018-09-02T08:42:38.648Z,62.99
2018-09-02T08:43:19.158Z,62.93
2018-09-02T08:43:59.680Z,63.09
2018-09-02T08:44:40.216Z,62.9
2018-09-02T08:45:20.735Z,63.09
2018-09-02T08:46:01.250Z,63.21
2018-09-02T08:46:42.462Z,63.09
2018-09-02T08:47:22.996Z,63.47
2018-09-02T08:48:03.546Z,63.47
2018-09-02T08:48:44.068Z,63.47
2018-09-02T08:49:24.595Z,63.38
2018-09-02T08:50:05.118Z,63.38
2018-09-02T08:50:45.697Z,63.28
2018-09-02T08:51:26.187Z,63.57
2018-09-02T08:52:06.707Z,63.38
2018-09-02T08:52:47.463Z,63.95
2018-09-02T08:53:27.983Z,64.05